Time;durP1;ratioP1;P1;durP2;ratioP2;P2;SDS_P1;SDS_P2;PMS_P1;PMS_P2;Temp;Humidity;BMP_temperature;BMP_pressure;BME280_temperature;BME280_humidity;BME280_pressure;Samples;Min_cycle;Max_cycle;Signal;HPM_P1;HPM_P2
2021/04/27 00:00:13;;;;;;;17.55;8.61;;;;;;;;;;394614;133;864996;-63
2021/04/27 00:01:15;;;;;;;14.95;7.60;;;;;;;;;;394534;133;857371;-63
2021/04/27 00:02:16;;;;;;;17.92;9.37;;;;;;;;;;394644;133;857244;-64
2021/04/27 00:03:19;;;;;;;17.29;8.26;;;;;;;;;;394525;136;865554;-64
2021/04/27 00:04:20;;;;;;;17.69;8.33;;;;;;;;;;394293;133;866722;-64
2021/04/27 00:05:22;;;;;;;20.71;8.41;;;;;;;;;;394546;136;858036;-64
2021/04/27 00:06:25;;;;;;;15.08;7.96;;;;;;;;;;396908;133;865025;-63
2021/04/27 00:07:30;;;;;;;17.18;8.44;;;;;;;;;;398019;132;860015;-65
2021/04/27 00:08:31;;;;;;;18.57;8.39;;;;;;;;;;395060;133;866108;-64
2021/04/27 00:09:32;;;;;;;17.03;8.23;;;;;;;;;;394283;134;865214;-64
2021/04/27 00:10:36;;;;;;;17.24;8.69;;;;;;;;;;394418;132;863957;-64
2021/04/27 00:11:38;;;;;;;18.13;8.61;;;;;;;;;;398552;133;856112;-64
2021/04/27 00:12:39;;;;;;;16.81;8.61;;;;;;;;;;394802;133;863938;-64
2021/04/27 00:13:41;;;;;;;18.33;8.81;;;;;;;;;;394677;134;863743;-64
2021/04/27 00:14:43;;;;;;;22.93;9.22;;;;;;;;;;394834;136;856537;-64
2021/04/27 00:15:44;;;;;;;19.48;9.48;;;;;;;;;;395081;132;856625;-64
2021/04/27 00:16:46;;;;;;;17.61;8.45;;;;;;;;;;394685;136;863825;-64
2021/04/27 00:17:48;;;;;;;16.25;8.99;;;;;;;;;;394629;133;857592;-64
2021/04/27 00:18:50;;;;;;;19.19;8.93;;;;;;;;;;394283;133;865532;-64
2021/04/27 00:19:52;;;;;;;16.61;8.54;;;;;;;;;;394556;133;858659;-64
2021/04/27 00:20:53;;;;;;;16.74;8.22;;;;;;;;;;394895;132;865075;-64
2021/04/27 00:21:55;;;;;;;20.20;8.83;;;;;;;;;;394444;136;860746;-63
2021/04/27 00:22:57;;;;;;;17.34;8.72;;;;;;;;;;394513;136;865094;-62
2021/04/27 00:23:58;;;;;;;22.04;8.97;;;;;;;;;;394376;134;865924;-62
2021/04/27 00:25:01;;;;;;;23.96;9.71;;;;;;;;;;396726;133;864723;-63
2021/04/27 00:26:03;;;;;;;22.20;9.26;;;;;;;;;;399947;133;866303;-63
2021/04/27 00:27:05;;;;;;;25.49;9.74;;;;;;;;;;394532;132;857268;-65
2021/04/27 00:28:06;;;;;;;20.41;9.34;;;;;;;;;;394394;136;866109;-65
2021/04/27 00:29:08;;;;;;;19.97;9.11;;;;;;;;;;396361;133;857263;-64
2021/04/27 00:30:11;;;;;;;20.94;9.39;;;;;;;;;;394864;132;864930;-64
2021/04/27 00:31:13;;;;;;;22.73;10.15;;;;;;;;;;402457;133;857965;-64
2021/04/27 00:32:14;;;;;;;23.11;9.54;;;;;;;;;;399473;132;857150;-64
2021/04/27 00:33:16;;;;;;;22.94;10.49;;;;;;;;;;402549;133;865862;-65
2021/04/27 00:34:18;;;;;;;20.09;9.87;;;;;;;;;;396152;132;864812;-66
2021/04/27 00:35:19;;;;;;;21.79;9.91;;;;;;;;;;395682;132;857227;-66
2021/04/27 00:36:21;;;;;;;20.41;9.85;;;;;;;;;;392460;132;865818;-65
2021/04/27 00:37:23;;;;;;;18.22;8.84;;;;;;;;;;357734;146;857434;-63
2021/04/27 00:38:25;;;;;;;18.11;8.94;;;;;;;;;;357056;148;865392;-63
2021/04/27 00:39:26;;;;;;;18.59;9.50;;;;;;;;;;359870;148;864915;-63
2021/04/27 00:40:32;;;;;;;18.56;8.59;;;;;;;;;;361337;146;865899;-64
2021/04/27 00:41:36;;;;;;;20.29;9.50;;;;;;;;;;355625;151;859050;-64
2021/04/27 00:42:38;;;;;;;19.09;9.48;;;;;;;;;;359384;146;858321;-64
2021/04/27 00:43:40;;;;;;;25.38;9.89;;;;;;;;;;366587;146;859878;-64
2021/04/27 00:44:42;;;;;;;17.03;9.47;;;;;;;;;;366835;145;864804;-64
2021/04/27 00:45:44;;;;;;;23.44;9.35;;;;;;;;;;367390;144;864933;-64
2021/04/27 00:46:46;;;;;;;18.74;8.65;;;;;;;;;;367173;146;865174;-63
2021/04/27 00:47:48;;;;;;;22.01;9.66;;;;;;;;;;366421;146;861516;-64
2021/04/27 00:48:49;;;;;;;18.51;8.36;;;;;;;;;;367633;144;866460;-65
2021/04/27 00:49:54;;;;;;;21.46;8.38;;;;;;;;;;367366;146;865765;-64
2021/04/27 00:50:56;;;;;;;17.51;8.36;;;;;;;;;;368318;144;865177;-64
2021/04/27 00:51:57;;;;;;;16.04;7.87;;;;;;;;;;362545;148;866769;-64
2021/04/27 00:52:59;;;;;;;17.39;8.27;;;;;;;;;;362975;144;865051;-64
2021/04/27 00:54:03;;;;;;;18.24;7.61;;;;;;;;;;366040;144;866717;-64
2021/04/27 00:55:05;;;;;;;18.76;8.17;;;;;;;;;;365912;146;866578;-64
2021/04/27 00:56:07;;;;;;;13.94;7.08;;;;;;;;;;367330;146;858011;-64
2021/04/27 00:57:09;;;;;;;16.89;7.98;;;;;;;;;;364737;144;858157;-64
2021/04/27 00:58:10;;;;;;;17.04;7.52;;;;;;;;;;362539;148;865043;-64
2021/04/27 00:59:12;;;;;;;14.03;7.41;;;;;;;;;;365365;144;865538;-64
2021/04/27 01:00:15;;;;;;;13.67;7.48;;;;;;;;;;366720;146;865421;-64
2021/04/27 01:01:16;;;;;;;15.30;7.31;;;;;;;;;;362437;148;864964;-64
2021/04/27 01:02:18;;;;;;;15.63;7.75;;;;;;;;;;368870;146;859058;-64
2021/04/27 01:03:20;;;;;;;13.61;7.13;;;;;;;;;;366129;143;866934;-64
2021/04/27 01:04:21;;;;;;;14.03;7.54;;;;;;;;;;366721;146;865045;-64
2021/04/27 01:05:24;;;;;;;14.29;7.49;;;;;;;;;;367189;144;862546;-64
2021/04/27 01:06:26;;;;;;;13.46;7.99;;;;;;;;;;365139;147;864967;-63
2021/04/27 01:07:28;;;;;;;14.66;8.00;;;;;;;;;;366789;144;866880;-64
2021/04/27 01:08:34;;;;;;;16.61;7.65;;;;;;;;;;367226;145;865820;-64
2021/04/27 01:09:38;;;;;;;15.93;7.02;;;;;;;;;;367706;146;858729;-64
2021/04/27 01:10:59;;;;;;;18.17;7.64;;;;;;;;;;368153;144;858471;-64
2021/04/27 01:12:09;;;;;;;16.64;8.17;;;;;;;;;;364322;145;857455;-64
2021/04/27 01:13:12;;;;;;;12.18;6.88;;;;;;;;;;352257;150;859094;-64
2021/04/27 01:14:28;;;;;;;14.80;7.47;;;;;;;;;;363415;144;857761;-64
2021/04/27 01:15:29;;;;;;;12.84;6.86;;;;;;;;;;367520;144;865738;-64
2021/04/27 01:16:31;;;;;;;15.54;7.59;;;;;;;;;;367491;146;857786;-64
2021/04/27 01:17:33;;;;;;;16.43;7.77;;;;;;;;;;367796;146;857500;-64
2021/04/27 01:18:39;;;;;;;15.52;7.84;;;;;;;;;;367680;144;856938;-64
2021/04/27 01:19:45;;;;;;;15.45;7.18;;;;;;;;;;364171;146;865070;-64
2021/04/27 01:20:47;;;;;;;13.66;7.02;;;;;;;;;;367544;146;857632;-64
2021/04/27 01:21:49;;;;;;;13.57;6.46;;;;;;;;;;365795;144;857741;-64
2021/04/27 01:22:57;;;;;;;16.33;7.09;;;;;;;;;;364361;145;859399;-64
2021/04/27 01:24:17;;;;;;;13.07;6.61;;;;;;;;;;366872;144;859171;-64
2021/04/27 01:25:21;;;;;;;18.73;7.19;;;;;;;;;;367101;146;857152;-64
2021/04/27 01:26:28;;;;;;;13.45;6.62;;;;;;;;;;366060;144;857514;-63
2021/04/27 01:27:29;;;;;;;14.77;6.40;;;;;;;;;;367273;146;857702;-64
2021/04/27 01:28:31;;;;;;;13.95;6.89;;;;;;;;;;367538;144;857403;-64
2021/04/27 01:29:33;;;;;;;14.41;6.30;;;;;;;;;;367906;144;865257;-64
2021/04/27 01:30:39;;;;;;;17.70;6.91;;;;;;;;;;368776;146;859091;-64
2021/04/27 01:31:41;;;;;;;14.68;7.02;;;;;;;;;;367029;144;865464;-63
2021/04/27 01:32:43;;;;;;;14.71;7.35;;;;;;;;;;363862;146;859340;-64
2021/04/27 01:33:44;;;;;;;15.39;6.34;;;;;;;;;;364590;146;866245;-63
2021/04/27 01:34:58;;;;;;;12.48;6.59;;;;;;;;;;368238;144;865109;-63
2021/04/27 01:36:00;;;;;;;12.03;5.97;;;;;;;;;;362436;146;865105;-64
2021/04/27 01:37:02;;;;;;;12.65;6.93;;;;;;;;;;362625;144;857520;-64
2021/04/27 01:38:04;;;;;;;14.83;6.17;;;;;;;;;;369604;144;859447;-64
2021/04/27 01:39:06;;;;;;;14.25;6.68;;;;;;;;;;364518;145;857166;-64
2021/04/27 01:40:09;;;;;;;12.43;6.22;;;;;;;;;;354229;150;858394;-64
2021/04/27 01:41:11;;;;;;;12.80;6.23;;;;;;;;;;362514;148;857309;-64
2021/04/27 01:42:13;;;;;;;10.72;5.67;;;;;;;;;;364202;144;857732;-63
2021/04/27 01:43:18;;;;;;;10.04;6.08;;;;;;;;;;366978;143;866547;-64
2021/04/27 01:44:18;;;;;;;11.17;6.18;;;;;;;;;;368238;146;857310;-64
2021/04/27 01:45:20;;;;;;;11.83;6.41;;;;;;;;;;367586;146;865606;-64
2021/04/27 01:46:24;;;;;;;11.76;6.45;;;;;;;;;;368522;146;865100;-64
2021/04/27 01:47:26;;;;;;;11.84;5.79;;;;;;;;;;369154;145;857263;-62
2021/04/27 01:48:27;;;;;;;10.53;5.97;;;;;;;;;;369008;144;857435;-64
2021/04/27 01:49:29;;;;;;;10.42;5.52;;;;;;;;;;367361;145;865185;-63
2021/04/27 01:50:31;;;;;;;11.50;5.84;;;;;;;;;;367114;146;866810;-63
2021/04/27 01:51:33;;;;;;;11.88;5.81;;;;;;;;;;367959;144;859856;-64
2021/04/27 01:52:35;;;;;;;12.12;5.91;;;;;;;;;;369245;145;865071;-64
2021/04/27 01:53:43;;;;;;;11.13;6.05;;;;;;;;;;368551;144;865254;-63
2021/04/27 01:54:45;;;;;;;11.71;5.94;;;;;;;;;;367691;146;857150;-64
2021/04/27 01:55:46;;;;;;;17.53;7.65;;;;;;;;;;362646;146;857245;-64
2021/04/27 01:56:48;;;;;;;13.33;6.75;;;;;;;;;;356754;146;865028;-64
2021/04/27 01:57:50;;;;;;;14.30;6.94;;;;;;;;;;362093;146;857197;-63
2021/04/27 01:58:51;;;;;;;11.50;6.94;;;;;;;;;;368185;144;865720;-63
2021/04/27 01:59:54;;;;;;;11.37;6.14;;;;;;;;;;368762;144;865190;-64
2021/04/27 02:00:56;;;;;;;15.97;7.59;;;;;;;;;;364378;146;866614;-63
2021/04/27 02:01:57;;;;;;;13.71;7.08;;;;;;;;;;366803;145;857250;-63
2021/04/27 02:02:59;;;;;;;15.13;7.93;;;;;;;;;;367205;145;857282;-63
2021/04/27 02:04:01;;;;;;;11.95;6.53;;;;;;;;;;365080;146;866667;-63
2021/04/27 02:05:04;;;;;;;13.90;6.99;;;;;;;;;;365638;144;865860;-63
2021/04/27 02:06:05;;;;;;;16.20;7.26;;;;;;;;;;367918;146;865805;-63
2021/04/27 02:07:07;;;;;;;15.18;6.70;;;;;;;;;;368387;146;858086;-63
2021/04/27 02:08:09;;;;;;;12.72;6.89;;;;;;;;;;366913;144;866752;-63
2021/04/27 02:09:11;;;;;;;10.83;6.14;;;;;;;;;;368182;146;865862;-63
2021/04/27 02:10:13;;;;;;;12.54;5.98;;;;;;;;;;367188;144;865530;-64
2021/04/27 02:11:14;;;;;;;15.59;6.95;;;;;;;;;;367526;145;859395;-63
2021/04/27 02:12:16;;;;;;;12.95;6.93;;;;;;;;;;368400;145;857182;-64
2021/04/27 02:13:18;;;;;;;15.16;7.36;;;;;;;;;;366727;144;858843;-64
2021/04/27 02:14:21;;;;;;;11.59;5.74;;;;;;;;;;368660;145;864977;-64
2021/04/27 02:15:25;;;;;;;11.88;5.65;;;;;;;;;;368642;146;857232;-64
2021/04/27 02:16:27;;;;;;;12.46;5.82;;;;;;;;;;365711;144;858715;-64
2021/04/27 02:17:35;;;;;;;8.29;5.26;;;;;;;;;;367415;146;865181;-64
2021/04/27 02:18:38;;;;;;;13.54;6.05;;;;;;;;;;368588;144;865117;-63
2021/04/27 02:19:39;;;;;;;12.07;6.11;;;;;;;;;;364125;146;857409;-63
2021/04/27 02:20:41;;;;;;;11.75;5.93;;;;;;;;;;363804;146;866436;-63
2021/04/27 02:21:43;;;;;;;10.33;5.97;;;;;;;;;;366889;144;857644;-63
2021/04/27 02:22:47;;;;;;;10.42;5.44;;;;;;;;;;368510;146;865881;-63
2021/04/27 02:23:49;;;;;;;10.64;5.54;;;;;;;;;;365997;143;864943;-64
2021/04/27 02:24:50;;;;;;;11.78;5.61;;;;;;;;;;368679;146;859383;-64
2021/04/27 02:25:52;;;;;;;12.41;5.97;;;;;;;;;;362150;148;865053;-64
2021/04/27 02:26:54;;;;;;;10.81;5.92;;;;;;;;;;360717;146;865329;-63
2021/04/27 02:27:55;;;;;;;14.13;6.32;;;;;;;;;;368722;145;865141;-64
2021/04/27 02:28:57;;;;;;;10.89;5.89;;;;;;;;;;367170;144;866482;-63
2021/04/27 02:29:58;;;;;;;10.74;5.71;;;;;;;;;;368109;144;865158;-64
2021/04/27 02:31:00;;;;;;;12.68;5.96;;;;;;;;;;367902;145;865000;-64
2021/04/27 02:32:02;;;;;;;11.69;5.69;;;;;;;;;;368904;144;857400;-63
2021/04/27 02:33:04;;;;;;;10.71;5.81;;;;;;;;;;368906;144;864915;-63
2021/04/27 02:34:05;;;;;;;12.71;5.76;;;;;;;;;;365874;145;858650;-63
2021/04/27 02:35:08;;;;;;;14.04;6.38;;;;;;;;;;366692;145;865678;-63
2021/04/27 02:36:10;;;;;;;11.98;5.70;;;;;;;;;;365065;144;864976;-64
2021/04/27 02:37:12;;;;;;;10.76;5.79;;;;;;;;;;367219;144;857313;-63
2021/04/27 02:38:14;;;;;;;9.79;5.99;;;;;;;;;;366024;145;867680;-64
2021/04/27 02:39:15;;;;;;;10.75;5.84;;;;;;;;;;359452;148;864913;-65
2021/04/27 02:40:23;;;;;;;10.15;5.44;;;;;;;;;;362478;146;859018;-62
2021/04/27 02:41:27;;;;;;;10.75;6.00;;;;;;;;;;365346;144;858848;-62
2021/04/27 02:42:28;;;;;;;11.06;5.54;;;;;;;;;;365363;145;857800;-64
2021/04/27 02:43:30;;;;;;;10.70;5.77;;;;;;;;;;368263;143;866766;-63
2021/04/27 02:44:31;;;;;;;11.40;5.86;;;;;;;;;;365588;144;865522;-62
2021/04/27 02:45:33;;;;;;;9.34;5.81;;;;;;;;;;369263;144;865103;-63
2021/04/27 02:46:35;;;;;;;13.37;5.76;;;;;;;;;;368470;144;865514;-64
2021/04/27 02:47:36;;;;;;;12.70;6.06;;;;;;;;;;368888;145;859177;-64
2021/04/27 02:48:38;;;;;;;9.65;5.29;;;;;;;;;;368486;144;862590;-64
2021/04/27 02:49:39;;;;;;;10.55;5.41;;;;;;;;;;369404;144;860228;-64
2021/04/27 02:50:43;;;;;;;12.15;5.67;;;;;;;;;;366546;145;857538;-64
2021/04/27 02:51:44;;;;;;;11.50;5.91;;;;;;;;;;368310;144;859516;-64
2021/04/27 02:52:46;;;;;;;11.39;5.83;;;;;;;;;;365402;147;866237;-63
2021/04/27 02:53:47;;;;;;;9.57;5.57;;;;;;;;;;367365;144;862998;-64
2021/04/27 02:54:49;;;;;;;13.40;6.11;;;;;;;;;;368422;144;857337;-64
2021/04/27 02:55:50;;;;;;;10.04;6.11;;;;;;;;;;369006;145;857462;-63
2021/04/27 02:56:52;;;;;;;11.09;6.04;;;;;;;;;;368370;144;859926;-63
2021/04/27 02:57:54;;;;;;;11.74;5.84;;;;;;;;;;361850;148;858868;-63
2021/04/27 02:58:56;;;;;;;10.42;5.98;;;;;;;;;;360315;147;865556;-64
2021/04/27 02:59:57;;;;;;;12.04;6.01;;;;;;;;;;370011;144;859634;-64
2021/04/27 03:00:59;;;;;;;11.89;5.91;;;;;;;;;;369602;143;859042;-63
2021/04/27 03:02:01;;;;;;;11.53;5.91;;;;;;;;;;367404;144;857259;-64
2021/04/27 03:03:03;;;;;;;9.46;5.85;;;;;;;;;;369055;143;866707;-64
2021/04/27 03:04:04;;;;;;;9.90;5.71;;;;;;;;;;364710;145;865962;-64
2021/04/27 03:05:06;;;;;;;9.24;5.39;;;;;;;;;;367913;144;865174;-64
2021/04/27 03:06:08;;;;;;;10.07;5.71;;;;;;;;;;369218;145;866356;-64
2021/04/27 03:07:10;;;;;;;9.45;5.96;;;;;;;;;;368950;145;859682;-64
2021/04/27 03:08:11;;;;;;;11.52;5.22;;;;;;;;;;365112;144;865630;-64
2021/04/27 03:09:13;;;;;;;8.03;4.79;;;;;;;;;;364509;144;857701;-63
2021/04/27 03:10:15;;;;;;;11.03;5.43;;;;;;;;;;367237;143;857450;-65
2021/04/27 03:11:17;;;;;;;7.12;3.66;;;;;;;;;;368538;144;857108;-64
2021/04/27 03:12:18;;;;;;;11.69;5.68;;;;;;;;;;366184;145;857410;-64
2021/04/27 03:13:20;;;;;;;5.71;3.71;;;;;;;;;;367388;144;866042;-64
2021/04/27 03:14:21;;;;;;;7.01;4.09;;;;;;;;;;368036;144;858100;-64
2021/04/27 03:15:23;;;;;;;10.61;5.55;;;;;;;;;;365495;145;864952;-65
2021/04/27 03:16:26;;;;;;;9.90;5.06;;;;;;;;;;366116;145;865044;-66
2021/04/27 03:17:28;;;;;;;11.39;6.21;;;;;;;;;;368540;145;857490;-64
2021/04/27 03:18:29;;;;;;;10.94;5.79;;;;;;;;;;371254;144;859511;-63
2021/04/27 03:19:31;;;;;;;6.05;3.91;;;;;;;;;;367650;144;857585;-64
2021/04/27 03:20:33;;;;;;;9.09;5.15;;;;;;;;;;367747;145;859396;-62
2021/04/27 03:21:34;;;;;;;10.99;6.03;;;;;;;;;;365855;145;858557;-62
2021/04/27 03:22:36;;;;;;;10.40;5.67;;;;;;;;;;367135;144;856361;-64
2021/04/27 03:25:23;;;;;;;9.41;4.99;;;;;;;2.38;61.89;99788.85;370527;142;883079;-65
2021/04/27 03:26:26;;;;;;;10.60;5.47;;;;;;;2.27;61.99;99778.37;362159;148;857613;-65
2021/04/27 03:27:27;;;;;;;13.07;5.63;;;;;;;2.29;61.90;99786.09;362400;146;860056;-64
2021/04/27 03:28:29;;;;;;;7.65;3.40;;;;;;;2.33;61.97;99782.77;363000;147;858007;-67
2021/04/27 03:29:31;;;;;;;7.31;4.10;;;;;;;2.38;62.47;99781.19;364686;147;865638;-66
2021/04/27 03:30:33;;;;;;;9.21;5.10;;;;;;;2.43;62.32;99786.38;363290;147;865835;-65
2021/04/27 03:31:35;;;;;;;6.07;3.69;;;;;;;2.51;61.90;99787.41;361429;146;856781;-65
2021/04/27 03:32:37;;;;;;;12.85;5.86;;;;;;;2.54;62.00;99784.92;359583;147;865965;-64
2021/04/27 03:33:39;;;;;;;9.11;4.23;;;;;;;2.58;61.93;99789.27;362072;146;866661;-65
2021/04/27 03:34:40;;;;;;;9.83;4.37;;;;;;;2.60;61.87;99789.33;359496;146;859046;-65
2021/04/27 03:35:44;;;;;;;8.33;4.77;;;;;;;2.60;61.99;99797.84;359420;147;866556;-64
2021/04/27 03:36:46;;;;;;;7.49;4.63;;;;;;;2.64;62.00;99791.12;360355;146;865381;-62
2021/04/27 03:37:47;;;;;;;7.67;3.99;;;;;;;2.61;62.03;99793.61;359595;147;862034;-64
2021/04/27 03:38:49;;;;;;;5.94;3.97;;;;;;;2.62;62.10;99791.06;363164;147;858812;-63
2021/04/27 03:39:51;;;;;;;9.94;4.51;;;;;;;2.68;62.16;99795.47;360464;146;865375;-66
2021/04/27 03:40:53;;;;;;;6.23;3.78;;;;;;;2.53;62.09;99801.09;359777;147;866119;-65
2021/04/27 03:41:55;;;;;;;7.66;4.79;;;;;;;2.43;63.00;99792.38;363577;147;857944;-67
2021/04/27 03:42:57;;;;;;;9.09;5.09;;;;;;;2.48;62.74;99803.56;359642;147;859456;-63
2021/04/27 03:43:58;;;;;;;7.82;4.21;;;;;;;2.47;62.45;99796.72;358412;148;857408;-66
2021/04/27 03:45:00;;;;;;;8.49;4.81;;;;;;;2.52;62.51;99796.81;355350;149;865025;-66
2021/04/27 03:46:02;;;;;;;10.04;5.01;;;;;;;2.60;62.59;99794.44;354745;149;864824;-66
2021/04/27 03:47:04;;;;;;;7.35;4.47;;;;;;;2.69;62.40;99797.19;354650;148;859703;-64
2021/04/27 03:48:08;;;;;;;8.13;4.62;;;;;;;2.78;62.07;99791.42;358420;147;865723;-66
2021/04/27 03:49:10;;;;;;;8.99;4.09;;;;;;;2.85;61.78;99798.40;359852;148;858251;-68
2021/04/27 03:50:19;;;;;;;9.30;4.65;;;;;;;2.91;61.65;99795.09;355686;148;857841;-64
2021/04/27 03:51:21;;;;;;;6.72;4.11;;;;;;;2.95;61.43;99790.91;357475;149;858890;-63
2021/04/27 03:52:23;;;;;;;7.45;3.95;;;;;;;3.00;61.70;99786.75;356972;148;858155;-66
2021/04/27 03:53:24;;;;;;;7.64;4.71;;;;;;;2.88;61.61;99784.80;357504;149;858915;-62
2021/04/27 03:54:26;;;;;;;5.83;3.69;;;;;;;2.88;61.74;99785.67;357002;149;865791;-64
2021/04/27 03:55:28;;;;;;;8.35;4.19;;;;;;;2.88;61.95;99785.67;359477;148;865155;-65
2021/04/27 03:56:30;;;;;;;7.81;4.32;;;;;;;2.90;61.83;99789.13;358215;148;865076;-66
2021/04/27 03:57:32;;;;;;;8.14;4.23;;;;;;;2.91;61.77;99789.97;354738;149;857265;-66
2021/04/27 03:58:34;;;;;;;8.22;4.39;;;;;;;2.87;61.87;99790.74;360144;148;857497;-62
2021/04/27 03:59:35;;;;;;;7.76;4.26;;;;;;;2.86;62.05;99792.45;358106;149;864994;-63
2021/04/27 04:00:38;;;;;;;9.07;4.60;;;;;;;2.83;62.00;99792.39;358111;148;864941;-60
2021/04/27 04:01:40;;;;;;;6.81;4.16;;;;;;;2.60;62.86;99797.84;349962;151;857232;-60
2021/04/27 04:02:41;;;;;;;7.10;4.16;;;;;;;2.58;63.10;99798.66;359028;148;857943;-63
2021/04/27 04:03:43;;;;;;;6.59;4.10;;;;;;;2.65;63.30;99792.84;356368;148;865000;-62
2021/04/27 04:04:45;;;;;;;6.04;3.62;;;;;;;2.74;63.14;99790.48;358347;148;866584;-61
2021/04/27 04:05:46;;;;;;;5.31;3.54;;;;;;;2.85;62.79;99793.28;354529;149;864825;-65
2021/04/27 04:06:48;;;;;;;6.59;4.13;;;;;;;2.89;62.42;99795.07;352821;152;866579;-61
2021/04/27 04:07:50;;;;;;;9.94;4.01;;;;;;;2.96;62.51;99793.48;358941;147;857254;-60
2021/04/27 04:08:52;;;;;;;5.24;3.66;;;;;;;3.05;62.57;99792.83;357731;147;865314;-62
2021/04/27 04:09:54;;;;;;;5.21;3.37;;;;;;;3.15;62.12;99788.73;357112;149;865381;-62
2021/04/27 04:10:56;;;;;;;5.83;3.84;;;;;;;3.12;61.75;99791.23;357917;147;859962;-59
2021/04/27 04:11:58;;;;;;;6.65;3.47;;;;;;;3.16;61.78;99793.02;357821;147;860438;-60
2021/04/27 04:12:59;;;;;;;6.69;4.01;;;;;;;3.20;61.84;99793.13;358408;147;864864;-58
2021/04/27 04:14:01;;;;;;;7.94;3.81;;;;;;;3.27;61.91;99796.68;357793;147;864904;-58
2021/04/27 04:15:05;;;;;;;5.73;3.69;;;;;;;3.35;61.85;99797.69;357017;147;865242;-60
2021/04/27 04:16:08;;;;;;;8.71;3.94;;;;;;;3.33;61.67;99793.36;357684;147;857353;-59
2021/04/27 04:17:09;;;;;;;6.85;3.76;;;;;;;3.36;61.53;99790.86;357161;147;857852;-60
2021/04/27 04:18:11;;;;;;;4.90;3.40;;;;;;;3.38;61.47;99790.91;358366;147;858353;-59
2021/04/27 04:19:13;;;;;;;5.49;3.36;;;;;;;3.42;61.43;99797.80;359977;147;865740;-60
2021/04/27 04:20:20;;;;;;;5.39;3.91;;;;;;;3.47;61.17;99788.52;357804;148;866571;-61
2021/04/27 04:21:23;;;;;;;6.66;3.91;;;;;;;3.55;61.34;99794.64;357740;148;857853;-61
2021/04/27 04:22:25;;;;;;;6.64;3.53;;;;;;;3.53;61.11;99791.19;356956;148;857751;-61
2021/04/27 04:23:27;;;;;;;4.45;3.31;;;;;;;3.42;61.37;99793.53;351312;150;866663;-61
2021/04/27 04:24:29;;;;;;;7.38;3.60;;;;;;;3.45;61.26;99796.15;350521;150;857384;-59
2021/04/27 04:25:31;;;;;;;6.41;3.31;;;;;;;3.39;61.32;99790.06;356546;148;857797;-59
2021/04/27 04:26:34;;;;;;;4.89;3.40;;;;;;;3.34;61.45;99795.97;355788;149;865080;-61
2021/04/27 04:27:36;;;;;;;4.39;3.10;;;;;;;3.16;62.07;99796.45;348712;150;857795;-61
2021/04/27 04:28:38;;;;;;;7.32;3.69;;;;;;;3.25;62.05;99797.47;348510;151;869308;-61
2021/04/27 04:29:40;;;;;;;4.62;3.52;;;;;;;3.30;62.25;99795.86;356232;148;857303;-60
2021/04/27 04:30:42;;;;;;;4.70;3.17;;;;;;;3.40;62.39;99795.20;350515;153;866131;-62
2021/04/27 04:31:43;;;;;;;5.70;3.44;;;;;;;3.41;61.56;99801.20;342217;154;859191;-63
2021/04/27 04:32:45;;;;;;;4.41;2.60;;;;;;;3.27;62.19;99788.13;342584;155;865678;-59
2021/04/27 04:33:48;;;;;;;6.46;3.61;;;;;;;3.30;62.35;99794.18;341344;155;866282;-60
2021/04/27 04:34:49;;;;;;;5.53;3.62;;;;;;;3.37;61.89;99795.14;347638;152;857326;-61
2021/04/27 04:35:51;;;;;;;4.76;3.07;;;;;;;3.34;61.72;99795.09;348965;152;857276;-62
2021/04/27 04:36:53;;;;;;;5.49;3.03;;;;;;;2.93;62.43;99790.87;344575;154;864921;-61
2021/04/27 04:37:55;;;;;;;6.59;3.29;;;;;;;3.04;62.54;99793.66;344213;155;857317;-62
2021/04/27 04:38:57;;;;;;;4.90;3.54;;;;;;;3.01;62.78;99793.59;344568;154;864931;-64
2021/04/27 04:39:59;;;;;;;4.84;3.27;;;;;;;2.98;62.67;99788.42;345717;154;865011;-64
2021/04/27 04:41:01;;;;;;;5.82;3.31;;;;;;;2.87;63.09;99793.30;348179;151;867443;-64
2021/04/27 04:42:02;;;;;;;4.79;3.42;;;;;;;2.82;63.31;99794.89;344461;153;858696;-66
2021/04/27 04:43:04;;;;;;;6.14;3.11;;;;;;;2.96;63.29;99793.48;342002;155;865708;-63
2021/04/27 04:44:06;;;;;;;5.41;3.24;;;;;;;3.04;62.92;99797.06;346964;151;867139;-62
2021/04/27 04:45:09;;;;;;;5.45;3.28;;;;;;;3.09;62.59;99796.29;339351;154;865569;-63
2021/04/27 04:46:11;;;;;;;4.19;3.12;;;;;;;3.08;62.70;99790.33;348176;153;866871;-65
2021/04/27 04:47:13;;;;;;;4.71;3.32;;;;;;;3.02;63.05;99792.77;349305;153;857276;-62
2021/04/27 04:48:15;;;;;;;3.50;3.01;;;;;;;3.09;62.67;99788.62;345398;153;857237;-62
2021/04/27 04:49:17;;;;;;;5.22;3.02;;;;;;;3.17;62.58;99794.75;340975;156;865002;-64
2021/04/27 04:50:20;;;;;;;4.32;2.83;;;;;;;3.29;62.57;99797.58;350203;153;864944;-66
2021/04/27 04:51:22;;;;;;;5.01;3.32;;;;;;;3.44;62.52;99796.14;348976;151;857438;-63
2021/04/27 04:52:24;;;;;;;4.81;3.27;;;;;;;3.58;62.20;99799.81;347863;151;857710;-62
2021/04/27 04:53:25;;;;;;;5.13;2.85;;;;;;;3.69;61.26;99794.86;338813;156;857332;-62
2021/04/27 04:54:27;;;;;;;6.26;3.36;;;;;;;3.77;61.26;99789.89;342749;154;858743;-64
2021/04/27 04:55:29;;;;;;;5.30;2.94;;;;;;;3.51;61.08;99800.53;345773;152;865416;-63
2021/04/27 04:56:32;;;;;;;6.04;3.59;;;;;;;3.55;60.89;99802.31;343378;156;865716;-61
2021/04/27 04:57:35;;;;;;;5.10;3.08;;;;;;;3.55;60.89;99802.31;341409;154;857543;-61
2021/04/27 04:58:36;;;;;;;6.74;3.25;;;;;;;3.60;61.09;99793.02;347207;153;865006;-65
2021/04/27 04:59:38;;;;;;;5.77;3.17;;;;;;;3.48;61.03;99803.04;341751;154;865687;-64
2021/04/27 05:00:40;;;;;;;6.05;3.13;;;;;;;3.60;60.90;99798.14;345033;153;857302;-63
2021/04/27 05:01:43;;;;;;;4.37;2.99;;;;;;;3.55;60.90;99802.31;345444;155;857273;-63
2021/04/27 05:02:44;;;;;;;4.16;3.02;;;;;;;3.56;60.67;99800.60;343900;154;859418;-64
2021/04/27 05:03:46;;;;;;;4.86;3.13;;;;;;;3.33;61.35;99798.48;341985;154;857356;-62
2021/04/27 05:04:48;;;;;;;3.65;3.07;;;;;;;3.41;61.21;99796.08;345051;155;864986;-64
2021/04/27 05:05:50;;;;;;;3.95;2.85;;;;;;;3.55;61.20;99801.44;341424;154;859494;-65
2021/04/27 05:06:58;;;;;;;4.37;3.01;;;;;;;3.45;61.34;99797.86;341750;154;857781;-63
2021/04/27 05:07:58;;;;;;;7.31;2.97;;;;;;;3.61;61.52;99801.55;340039;155;857317;-64
2021/04/27 05:09:00;;;;;;;5.78;2.86;;;;;;;3.67;61.16;99799.09;345778;152;863890;-64
2021/04/27 05:10:02;;;;;;;4.68;2.80;;;;;;;3.55;60.55;99801.44;347508;152;856137;-63
2021/04/27 05:11:04;;;;;;;5.70;2.71;;;;;;;3.69;60.67;99802.55;343898;154;856996;-64
2021/04/27 05:12:07;;;;;;;5.89;3.24;;;;;;;3.68;60.51;99803.37;341345;154;856140;-65
2021/04/27 05:13:09;;;;;;;6.31;3.23;;;;;;;3.74;60.54;99800.95;341178;155;863859;-65
2021/04/27 05:14:11;;;;;;;4.02;2.83;;;;;;;3.79;59.96;99801.91;344852;153;863751;-63
2021/04/27 05:15:13;;;;;;;5.34;2.61;;;;;;;3.86;59.79;99802.00;345098;152;856449;-63
2021/04/27 05:16:15;;;;;;;5.93;2.68;;;;;;;3.97;59.85;99805.61;341658;155;863881;-63
2021/04/27 05:17:18;;;;;;;4.52;2.98;;;;;;;3.79;59.32;99801.91;347802;152;863680;-63
2021/04/27 05:18:19;;;;;;;4.20;2.82;;;;;;;3.83;59.42;99802.80;346944;152;864458;-62
2021/04/27 05:19:21;;;;;;;3.84;1.97;;;;;;;3.90;59.72;99808.91;347713;152;856439;-64
2021/04/27 05:20:24;;;;;;;4.50;2.31;;;;;;;3.98;59.42;99804.77;346028;152;863688;-63
2021/04/27 05:21:25;;;;;;;5.31;2.67;;;;;;;4.08;59.27;99805.77;347437;152;856610;-63
2021/04/27 05:22:27;;;;;;;5.41;2.62;;;;;;;4.18;59.06;99809.35;348744;152;856631;-62
2021/04/27 05:23:29;;;;;;;5.11;2.91;;;;;;;4.27;58.51;99808.65;347794;152;863946;-61
2021/04/27 05:24:31;;;;;;;7.23;2.97;;;;;;;4.23;58.61;99813.69;346450;152;856253;-64
2021/04/27 05:25:33;;;;;;;4.30;2.81;;;;;;;4.31;58.58;99818.11;347357;151;863941;-63
2021/04/27 05:26:34;;;;;;;3.25;2.65;;;;;;;4.20;58.75;99817.92;347560;153;863742;-63
2021/04/27 05:27:36;;;;;;;4.81;2.41;;;;;;;4.08;57.84;99816.89;346574;152;856335;-62
2021/04/27 05:28:38;;;;;;;4.03;2.91;;;;;;;4.10;58.21;99816.91;348708;153;863831;-61
2021/04/27 05:29:40;;;;;;;3.11;2.57;;;;;;;3.92;58.16;99813.20;341451;155;856664;-62
2021/04/27 05:30:43;;;;;;;5.18;2.70;;;;;;;4.03;58.55;99815.08;340506;156;856718;-63
2021/04/27 05:31:47;;;;;;;3.71;2.58;;;;;;;4.03;58.85;99807.39;347364;151;856283;-64
2021/04/27 05:32:49;;;;;;;4.91;2.61;;;;;;;4.16;58.68;99803.34;345110;151;857226;-63
2021/04/27 05:33:51;;;;;;;5.07;3.02;;;;;;;4.31;58.29;99818.11;345199;151;863723;-62